Time;durP1;ratioP1;P1;durP2;ratioP2;P2;SDS_P1;SDS_P2;PMS_P1;PMS_P2;Temp;Humidity;BMP_temperature;BMP_pressure;BME280_temperature;BME280_humidity;BME280_pressure;Samples;Min_cycle;Max_cycle;Signal;HPM_P1;HPM_P2
2023/04/23 00:02:12;;;;;;;26.80;18.83;;;;;;;13.91;61.16;98998.88;5013920;28;20080;-78
2023/04/23 00:04:47;;;;;;;26.65;20.52;;;;;;;13.86;61.30;99003.72;5013405;28;20054;-77
2023/04/23 00:07:15;;;;;;;23.08;19.15;;;;;;;13.81;61.24;98998.84;4995618;28;20058;-77
2023/04/23 00:09:42;;;;;;;25.77;20.08;;;;;;;13.80;61.20;98998.97;5013318;28;20057;-77
2023/04/23 00:12:09;;;;;;;26.02;18.95;;;;;;;13.78;61.19;98998.25;4996147;28;20050;-76
2023/04/23 00:14:36;;;;;;;26.77;21.13;;;;;;;13.74;61.25;99000.31;4996056;28;20053;-77
2023/04/23 00:17:03;;;;;;;26.17;21.27;;;;;;;13.72;60.97;98996.94;5012729;28;20050;-77
2023/04/23 00:19:29;;;;;;;27.65;21.30;;;;;;;13.69;60.95;98997.22;5013329;28;20053;-77
2023/04/23 00:21:56;;;;;;;28.60;22.33;;;;;;;13.67;61.11;99001.78;5002346;28;20101;-77
2023/04/23 00:24:23;;;;;;;28.88;22.35;;;;;;;13.63;60.97;98998.53;4976149;28;20058;-77
2023/04/23 00:26:51;;;;;;;29.25;21.35;;;;;;;13.61;61.08;98989.88;4992680;28;20090;-77
2023/04/23 00:29:18;;;;;;;26.52;19.65;;;;;;;13.61;61.15;98995.16;4993400;28;20046;-77
2023/04/23 00:31:44;;;;;;;27.75;22.33;;;;;;;13.60;61.25;98992.69;4993459;28;20065;-77
2023/04/23 00:34:11;;;;;;;28.90;22.58;;;;;;;13.59;61.15;98990.97;4993705;28;20210;-77
2023/04/23 00:36:38;;;;;;;28.65;22.30;;;;;;;13.57;61.28;98993.75;4992695;28;20061;-78
2023/04/23 00:39:04;;;;;;;28.58;22.17;;;;;;;13.54;61.19;98989.56;4992026;28;20157;-77
2023/04/23 00:41:31;;;;;;;31.10;23.10;;;;;;;13.53;61.14;98992.34;4993485;28;20553;-77
2023/04/23 00:43:58;;;;;;;30.10;22.98;;;;;;;13.51;61.05;98988.97;4993297;28;20058;-77
2023/04/23 00:46:25;;;;;;;31.25;23.55;;;;;;;13.48;61.01;98984.78;4992906;28;20050;-76
2023/04/23 00:48:53;;;;;;;32.08;22.65;;;;;;;13.47;61.16;98990.16;4975586;28;20062;-77
2023/04/23 00:51:24;;;;;;;30.73;23.20;;;;;;;13.45;61.13;98990.28;4993184;28;20086;-77
2023/04/23 00:53:51;;;;;;;28.73;23.45;;;;;;;13.45;61.22;99000.03;4992838;28;20081;-77
2023/04/23 00:56:17;;;;;;;31.65;25.23;;;;;;;13.41;61.02;98997.63;4992993;28;20066;-78
2023/04/23 00:58:44;;;;;;;33.92;25.65;;;;;;;13.39;61.13;98990.78;4992616;28;20071;-77
2023/04/23 01:01:12;;;;;;;30.13;24.02;;;;;;;13.36;61.14;98989.25;4974748;28;20140;-77
2023/04/23 01:03:41;;;;;;;32.33;24.58;;;;;;;13.34;60.97;98988.50;4993030;28;20133;-78
2023/04/23 01:06:07;;;;;;;32.00;24.52;;;;;;;13.32;60.81;98990.44;4990997;28;20061;-78
2023/04/23 01:08:35;;;;;;;32.92;25.27;;;;;;;13.31;61.32;98986.13;4992141;28;20055;-77
2023/04/23 01:11:02;;;;;;;35.22;25.70;;;;;;;13.28;61.32;98981.91;4992874;28;20141;-78
2023/04/23 01:13:29;;;;;;;34.03;24.60;;;;;;;13.28;61.37;98987.19;4975466;28;20526;-77
2023/04/23 01:15:55;;;;;;;33.88;26.27;;;;;;;13.29;61.53;98993.34;4990550;28;20491;-77
2023/04/23 01:18:23;;;;;;;32.58;24.73;;;;;;;13.29;61.13;98990.69;4992915;28;20580;-76
2023/04/23 01:20:50;;;;;;;31.95;25.17;;;;;;;13.27;61.45;98987.34;4995509;28;20388;-78
2023/04/23 01:23:17;;;;;;;35.65;26.45;;;;;;;13.26;61.24;98997.06;5002704;28;20085;-77
2023/04/23 01:25:44;;;;;;;34.88;26.55;;;;;;;13.25;61.29;98992.75;4992172;28;20141;-77
2023/04/23 01:28:11;;;;;;;33.80;26.35;;;;;;;13.23;61.41;98989.38;4982589;28;20335;-77
2023/04/23 01:30:39;;;;;;;34.67;26.73;;;;;;;13.22;61.36;98990.34;5001339;28;20046;-77
2023/04/23 01:33:06;;;;;;;32.25;25.65;;;;;;;13.20;61.40;98986.97;4986112;28;20128;-77
2023/04/23 01:35:35;;;;;;;41.42;27.40;;;;;;;13.19;61.73;98995.88;5003565;28;20421;-77
2023/04/23 01:38:02;;;;;;;36.20;27.13;;;;;;;13.18;61.62;98996.84;4994105;28;20093;-77
2023/04/23 01:40:29;;;;;;;36.38;26.98;;;;;;;13.18;61.67;99003.91;5007372;28;20078;-77
2023/04/23 01:42:57;;;;;;;34.25;25.45;;;;;;;13.13;61.56;99002.47;5003354;28;20643;-77
2023/04/23 01:45:23;;;;;;;37.65;28.20;;;;;;;13.13;61.71;99012.22;5003147;28;20077;-77
2023/04/23 01:47:51;;;;;;;37.10;27.80;;;;;;;13.07;61.54;99013.56;5011290;28;20093;-77
2023/04/23 01:50:18;;;;;;;37.78;27.85;;;;;;;13.02;61.75;99008.63;5011673;28;20054;-78
2023/04/23 01:52:45;;;;;;;36.72;27.88;;;;;;;12.99;61.84;99003.59;5008161;28;20085;-76
2023/04/23 01:55:13;;;;;;;40.72;29.35;;;;;;;12.97;62.08;99007.34;4985561;28;20065;-77
2023/04/23 01:57:39;;;;;;;37.58;28.50;;;;;;;12.94;61.91;99012.84;5011129;28;20057;-77
2023/04/23 02:00:11;;;;;;;39.55;29.33;;;;;;;12.90;62.68;99007.78;5011414;28;20104;-78
2023/04/23 02:02:39;;;;;;;36.88;27.75;;;;;;;12.90;62.06;99009.63;5011590;28;20060;-77
2023/04/23 02:05:17;;;;;;;39.85;28.52;;;;;;;12.86;62.91;99008.19;5010790;28;20057;-77
2023/04/23 02:07:45;;;;;;;37.25;27.55;;;;;;;12.85;62.15;99009.97;5009898;28;20129;-77
2023/04/23 02:10:12;;;;;;;42.15;29.50;;;;;;;12.84;62.12;99018.00;5011101;28;20065;-77
2023/04/23 02:12:39;;;;;;;39.75;29.13;;;;;;;12.81;62.19;99019.09;4993731;28;20060;-78
2023/04/23 02:15:08;;;;;;;45.08;29.52;;;;;;;12.77;61.99;99012.38;4993428;28;20462;-78
2023/04/23 02:17:35;;;;;;;42.47;31.65;;;;;;;12.73;62.13;99011.78;5010892;28;20089;-77
2023/04/23 02:20:01;;;;;;;42.55;31.48;;;;;;;12.69;62.15;99009.47;4993721;28;20097;-77
2023/04/23 02:22:28;;;;;;;43.08;30.88;;;;;;;12.66;62.22;99009.72;5011262;28;20123;-77
2023/04/23 02:24:55;;;;;;;41.08;30.98;;;;;;;12.64;62.38;98996.66;5010634;28;20092;-77
2023/04/23 02:27:21;;;;;;;39.72;29.52;;;;;;;12.62;62.58;98995.91;5010857;28;20061;-77
2023/04/23 02:29:48;;;;;;;38.53;28.13;;;;;;;12.61;62.63;98994.25;5010931;28;20057;-77
2023/04/23 02:32:15;;;;;;;41.38;30.80;;;;;;;12.61;62.68;98996.88;5010870;28;20137;-77
2023/04/23 02:34:42;;;;;;;42.88;31.00;;;;;;;12.62;62.49;99001.19;5010559;28;20054;-77
2023/04/23 02:37:09;;;;;;;44.90;32.53;;;;;;;12.63;62.59;99005.50;4992792;28;20542;-77
2023/04/23 02:39:37;;;;;;;47.47;34.17;;;;;;;12.61;62.39;98997.75;5010847;28;20076;-77
2023/04/23 02:42:05;;;;;;;51.38;36.38;;;;;;;12.60;62.17;99008.41;5010628;28;20751;-76
2023/04/23 02:44:31;;;;;;;49.70;35.38;;;;;;;12.57;62.19;99006.84;5011007;28;20065;-77
2023/04/23 02:46:58;;;;;;;52.67;36.85;;;;;;;12.54;62.32;99008.88;5010110;28;20081;-78
2023/04/23 02:49:25;;;;;;;55.03;37.97;;;;;;;12.50;62.42;99008.28;4993207;28;20454;-77
2023/04/23 02:51:51;;;;;;;59.03;41.42;;;;;;;12.47;62.52;99009.38;5010497;28;20148;-76
2023/04/23 02:54:18;;;;;;;57.08;39.40;;;;;;;12.46;62.47;99005.03;5010477;28;20503;-78
2023/04/23 02:56:45;;;;;;;55.95;38.80;;;;;;;12.45;62.56;99005.97;5010032;28;20096;-77
2023/04/23 02:59:11;;;;;;;53.63;37.58;;;;;;;12.42;62.53;99006.25;4993308;28;20088;-77
2023/04/23 03:01:38;;;;;;;47.90;34.13;;;;;;;12.45;62.75;99002.53;5010923;28;20108;-78
2023/04/23 03:04:05;;;;;;;47.60;33.60;;;;;;;12.45;62.68;99007.81;5010691;28;20141;-77
2023/04/23 03:06:34;;;;;;;50.53;34.95;;;;;;;12.46;62.68;99007.69;5010380;28;20072;-78
2023/04/23 03:09:01;;;;;;;44.58;32.88;;;;;;;12.48;62.74;99002.25;4992875;28;20100;-77
2023/04/23 03:11:28;;;;;;;49.78;35.22;;;;;;;12.49;62.67;98998.69;5010348;28;20561;-77
2023/04/23 03:13:54;;;;;;;51.78;35.50;;;;;;;12.49;62.54;99009.25;5009490;28;20108;-77
2023/04/23 03:16:21;;;;;;;48.90;33.85;;;;;;;12.47;62.66;99004.09;5010198;28;20212;-77
2023/04/23 03:18:48;;;;;;;52.55;35.28;;;;;;;12.46;62.57;99010.31;5009990;28;20081;-77
2023/04/23 03:21:14;;;;;;;53.78;36.70;;;;;;;12.45;62.67;99007.81;5010289;28;20061;-78
2023/04/23 03:26:15;;;;;;;55.58;38.00;;;;;;;12.37;62.51;98990.75;4664208;23;20427;-79
2023/04/23 03:28:42;;;;;;;52.85;37.33;;;;;;;12.33;62.44;98994.56;4994517;28;20050;-80
2023/04/23 03:31:08;;;;;;;51.28;35.40;;;;;;;12.28;62.30;98996.75;4994517;28;20050;-79
2023/04/23 03:33:35;;;;;;;54.13;36.47;;;;;;;12.22;62.44;98998.03;4994616;28;20046;-80
2023/04/23 03:36:01;;;;;;;58.20;37.30;;;;;;;12.16;62.70;98987.13;4993971;28;20143;-80
2023/04/23 03:38:28;;;;;;;53.00;37.00;;;;;;;12.09;62.76;98995.50;4994216;28;20050;-79
2023/04/23 03:40:54;;;;;;;56.00;36.95;;;;;;;12.01;62.95;98992.56;4994698;28;20061;-79
2023/04/23 03:43:21;;;;;;;51.38;36.10;;;;;;;11.95;63.09;98991.25;4994466;28;20062;-80
2023/04/23 03:45:47;;;;;;;54.33;36.85;;;;;;;11.91;63.14;98986.28;4993746;28;20664;-81
2023/04/23 03:48:14;;;;;;;53.65;37.75;;;;;;;11.85;63.28;98988.44;4994017;28;20064;-80
2023/04/23 03:50:41;;;;;;;55.97;38.60;;;;;;;11.81;63.43;98986.16;4993963;28;20046;-80
2023/04/23 03:53:08;;;;;;;54.17;37.15;;;;;;;11.77;63.53;98985.53;4993976;28;20050;-80
2023/04/23 03:55:35;;;;;;;55.63;38.35;;;;;;;11.73;63.57;98984.94;4993867;28;20050;-79
2023/04/23 03:58:02;;;;;;;54.45;37.85;;;;;;;11.69;63.80;98980.00;4991432;28;20495;-80
2023/04/23 04:00:28;;;;;;;55.78;38.30;;;;;;;11.66;63.79;98973.16;4990417;28;20045;-80
2023/04/23 04:02:55;;;;;;;56.17;38.95;;;;;;;11.63;63.84;98976.03;5005359;28;20112;-79
2023/04/23 04:05:22;;;;;;;51.85;37.03;;;;;;;11.59;64.04;98969.31;5010460;28;20054;-79
2023/04/23 04:07:48;;;;;;;51.72;35.97;;;;;;;11.56;64.21;98974.81;4993370;28;20054;-79
2023/04/23 04:10:15;;;;;;;59.35;38.67;;;;;;;11.54;64.27;98971.41;4976868;28;20058;-79
2023/04/23 04:12:43;;;;;;;55.72;37.83;;;;;;;11.53;64.31;98975.00;4976422;28;20085;-79
2023/04/23 04:15:11;;;;;;;52.65;35.90;;;;;;;11.53;64.36;98981.13;4993566;28;20433;-79
2023/04/23 04:17:38;;;;;;;55.15;37.13;;;;;;;11.53;64.58;98970.59;4975931;28;20050;-79
2023/04/23 04:20:12;;;;;;;52.33;37.13;;;;;;;11.53;64.50;98972.38;4993747;28;20061;-80
2023/04/23 04:22:39;;;;;;;53.75;36.88;;;;;;;11.54;64.53;98976.69;4976485;28;20495;-79
2023/04/23 04:25:06;;;;;;;58.63;38.90;;;;;;;11.53;64.62;98981.13;4993452;28;20065;-79
2023/04/23 04:27:33;;;;;;;59.65;38.67;;;;;;;11.51;64.63;98967.22;4993498;28;20059;-79
2023/04/23 04:30:00;;;;;;;57.45;36.78;;;;;;;11.50;64.53;98970.81;4993488;28;20064;-80
2023/04/23 04:32:27;;;;;;;56.10;37.90;;;;;;;11.49;64.75;98965.66;4993589;28;20542;-79
2023/04/23 04:34:53;;;;;;;54.63;36.38;;;;;;;11.46;64.75;98961.44;4992449;28;20141;-79
2023/04/23 04:37:20;;;;;;;57.55;39.00;;;;;;;11.46;64.65;98961.44;4991275;28;20066;-78
2023/04/23 04:39:46;;;;;;;58.10;39.03;;;;;;;11.45;65.04;98965.06;4993340;28;20089;-79
2023/04/23 04:42:13;;;;;;;57.75;38.10;;;;;;;11.43;64.90;98966.94;4992246;28;20058;-79
2023/04/23 04:44:40;;;;;;;58.55;37.78;;;;;;;11.41;64.95;98976.75;4993184;28;20054;-79
2023/04/23 04:47:07;;;;;;;59.72;39.17;;;;;;;11.40;65.20;98967.19;4992691;28;20054;-79
2023/04/23 04:49:34;;;;;;;57.97;39.45;;;;;;;11.37;65.25;98968.25;4991802;28;20058;-79
2023/04/23 04:52:01;;;;;;;58.53;39.45;;;;;;;11.34;65.49;98971.94;4993328;28;20061;-79
2023/04/23 04:54:27;;;;;;;59.50;39.80;;;;;;;11.32;65.56;98965.09;4992982;28;20054;-80
2023/04/23 04:56:54;;;;;;;57.90;38.78;;;;;;;11.30;65.56;98965.22;4992492;28;20054;-79
2023/04/23 04:59:20;;;;;;;66.03;42.20;;;;;;;11.28;65.83;98969.75;4992993;28;20058;-80
2023/04/23 05:01:47;;;;;;;64.50;41.42;;;;;;;11.26;66.03;98974.31;4993020;28;20050;-79
2023/04/23 05:04:14;;;;;;;60.17;39.17;;;;;;;11.25;65.99;98967.34;4992961;28;20414;-79
2023/04/23 05:06:40;;;;;;;60.13;40.05;;;;;;;11.25;66.07;98967.34;4991356;28;20561;-80
2023/04/23 05:09:07;;;;;;;60.42;38.78;;;;;;;11.26;66.05;98963.78;4975790;28;20141;-79
2023/04/23 05:11:34;;;;;;;64.72;40.53;;;;;;;11.28;66.31;98968.91;4988162;28;20042;-79
2023/04/23 05:14:01;;;;;;;69.57;43.72;;;;;;;11.30;66.86;98973.13;5004932;28;20072;-79
2023/04/23 05:16:27;;;;;;;66.22;41.67;;;;;;;11.31;67.76;98976.59;5007045;28;20537;-79
2023/04/23 05:18:54;;;;;;;65.72;43.67;;;;;;;11.34;67.32;98977.19;4992441;28;20149;-79
2023/04/23 05:21:20;;;;;;;61.17;40.13;;;;;;;11.37;67.25;98976.16;4992537;28;20069;-79
2023/04/23 05:23:48;;;;;;;64.03;41.05;;;;;;;11.39;67.07;98973.38;4992686;28;20054;-83
2023/04/23 05:26:15;;;;;;;68.47;41.70;;;;;;;11.41;67.25;98974.13;4997626;28;20057;-79
2023/04/23 05:28:41;;;;;;;69.03;42.95;;;;;;;11.44;67.22;98977.38;5008211;28;20120;-79
2023/04/23 05:31:07;;;;;;;67.65;41.58;;;;;;;11.47;67.22;98973.66;4999867;28;20057;-79
2023/04/23 05:33:34;;;;;;;68.05;42.15;;;;;;;11.50;67.17;98981.34;4992445;28;20058;-79
2023/04/23 05:36:15;;;;;;;65.07;41.03;;;;;;;11.53;67.10;98981.13;4991881;28;20097;-80
2023/04/23 05:38:41;;;;;;;65.60;40.50;;;;;;;11.56;67.08;98980.06;4991796;28;20446;-80
2023/04/23 05:41:08;;;;;;;64.60;39.70;;;;;;;11.60;67.21;98978.88;4992059;28;20531;-79
2023/04/23 05:43:34;;;;;;;65.93;41.70;;;;;;;11.65;67.13;98986.44;4991921;28;20053;-79
2023/04/23 05:46:03;;;;;;;63.65;38.47;;;;;;;11.70;67.04;98981.69;4991642;28;20486;-79
2023/04/23 05:48:30;;;;;;;62.00;38.30;;;;;;;11.75;67.11;98979.56;4989856;28;20057;-80
2023/04/23 05:50:57;;;;;;;64.57;40.17;;;;;;;11.80;67.13;98980.03;4992025;28;20407;-79
2023/04/23 05:53:24;;;;;;;69.70;41.80;;;;;;;11.84;67.03;98984.13;4991991;28;20058;-80
2023/04/23 05:55:51;;;;;;;64.50;39.53;;;;;;;11.89;66.99;98985.59;4991491;28;20062;-79
2023/04/23 05:58:18;;;;;;;68.65;42.30;;;;;;;11.92;67.06;98977.44;4991324;28;20050;-80
2023/04/23 06:00:44;;;;;;;65.43;41.45;;;;;;;11.97;67.17;98983.22;4992049;28;20070;-81
2023/04/23 06:03:11;;;;;;;62.38;38.90;;;;;;;12.02;67.33;98972.28;4991714;28;20109;-80
2023/04/23 06:05:37;;;;;;;66.57;39.50;;;;;;;12.07;67.70;98963.13;4991756;28;20510;-80
2023/04/23 06:08:04;;;;;;;64.88;40.13;;;;;;;12.15;67.49;98973.06;4973245;28;20057;-79
2023/04/23 06:10:31;;;;;;;66.60;41.08;;;;;;;12.24;67.63;98964.47;4990314;28;20054;-79
2023/04/23 06:12:57;;;;;;;64.57;40.67;;;;;;;12.30;67.61;98971.06;4991716;28;20061;-80
2023/04/23 06:15:25;;;;;;;61.05;38.38;;;;;;;12.36;67.58;98967.13;4991480;28;20054;-79
2023/04/23 06:17:53;;;;;;;61.45;38.97;;;;;;;12.41;67.84;98979.97;4990972;28;20054;-80
2023/04/23 06:20:19;;;;;;;62.17;39.25;;;;;;;12.47;67.73;98971.56;4991656;28;20062;-80
2023/04/23 06:22:46;;;;;;;63.45;39.47;;;;;;;12.52;67.53;98972.03;4991552;28;20058;-81
2023/04/23 06:25:12;;;;;;;59.65;37.55;;;;;;;12.55;67.57;98973.59;4990660;28;20050;-80
2023/04/23 06:27:39;;;;;;;62.45;38.58;;;;;;;12.58;67.58;98968.94;4991316;28;20110;-80
2023/04/23 06:30:06;;;;;;;58.75;36.70;;;;;;;12.64;67.63;98964.97;4990593;28;20109;-80
2023/04/23 06:32:33;;;;;;;55.80;36.08;;;;;;;12.69;67.56;98956.66;4973598;28;20495;-79
2023/04/23 06:35:12;;;;;;;52.65;35.28;;;;;;;12.71;68.72;98950.31;4990737;28;20533;-80
2023/04/23 06:37:38;;;;;;;58.05;35.42;;;;;;;12.83;67.54;98958.22;4973749;28;20066;-79
2023/04/23 06:40:05;;;;;;;54.00;35.63;;;;;;;12.89;67.39;98952.44;4991248;28;20081;-79
2023/04/23 06:42:32;;;;;;;51.70;34.55;;;;;;;12.95;67.02;98945.84;4991346;28;20479;-79
2023/04/23 06:45:02;;;;;;;50.58;34.00;;;;;;;13.00;66.81;98941.88;4990927;28;20060;-79
2023/04/23 06:47:31;;;;;;;;;;;;;;;13.03;68.00;98943.44;4991259;28;20459;-79
2023/04/23 06:49:59;;;;;;;47.30;30.90;;;;;;;13.12;66.25;98945.31;4991121;28;20329;-78
2023/04/23 06:52:26;;;;;;;47.55;31.75;;;;;;;13.14;66.20;98935.47;4991045;28;20101;-78
2023/04/23 06:54:52;;;;;;;49.42;32.60;;;;;;;13.16;66.45;98928.25;4973469;28;20144;-79
2023/04/23 06:57:20;;;;;;;49.20;32.95;;;;;;;13.19;66.49;98932.44;4973611;28;20061;-78
2023/04/23 06:59:47;;;;;;;49.72;31.35;;;;;;;13.25;66.29;98931.13;4993356;28;20125;-78
2023/04/23 07:02:13;;;;;;;49.45;32.35;;;;;;;13.29;66.24;98921.97;4994970;28;20427;-78
2023/04/23 07:04:40;;;;;;;46.08;30.60;;;;;;;13.34;66.32;98922.44;4995043;28;20089;-78
2023/04/23 07:07:07;;;;;;;44.92;30.23;;;;;;;13.40;66.31;98923.72;4994186;28;20108;-77
2023/04/23 07:09:34;;;;;;;40.58;28.73;;;;;;;13.46;66.23;98925.03;4977559;28;20594;-79
2023/04/23 07:12:01;;;;;;;41.05;28.27;;;;;;;13.52;65.99;98922.75;4994851;28;20153;-78
2023/04/23 07:14:27;;;;;;;41.17;28.77;;;;;;;13.59;66.17;98917.78;4993819;28;20054;-77
2023/04/23 07:16:54;;;;;;;40.00;27.15;;;;;;;13.67;65.97;98920.63;4976747;28;20062;-78
2023/04/23 07:19:20;;;;;;;40.53;27.70;;;;;;;13.74;65.91;98917.47;4994783;28;20530;-79
2023/04/23 07:21:47;;;;;;;36.30;25.88;;;;;;;13.80;65.94;98920.44;4977478;28;20069;-77
2023/04/23 07:24:14;;;;;;;36.13;26.00;;;;;;;13.88;65.54;98927.75;4994782;28;20046;-77
2023/04/23 07:26:40;;;;;;;35.38;25.65;;;;;;;13.94;65.31;98916.63;4993993;28;20065;-78
2023/04/23 07:29:09;;;;;;;33.83;24.73;;;;;;;14.02;64.91;98923.09;4994637;28;20097;-77
2023/04/23 07:31:36;;;;;;;33.55;25.20;;;;;;;14.07;64.58;98928.81;4993231;28;20133;-78
2023/04/23 07:34:02;;;;;;;32.83;24.63;;;;;;;14.12;64.50;98926.63;4994662;28;20112;-77
2023/04/23 07:36:30;;;;;;;36.60;24.13;;;;;;;14.16;64.53;98925.38;4994239;28;20105;-78
2023/04/23 07:38:56;;;;;;;32.05;23.27;;;;;;;14.23;64.30;98915.09;4994290;28;20062;-78
2023/04/23 07:41:23;;;;;;;34.70;24.67;;;;;;;14.29;64.52;98919.03;4977092;28;20058;-77
2023/04/23 07:43:50;;;;;;;32.88;23.35;;;;;;;14.37;64.51;98916.56;4994495;28;20430;-79
2023/04/23 07:46:17;;;;;;;30.75;22.92;;;;;;;14.45;64.48;98911.44;4976844;28;20069;-78
2023/04/23 07:48:43;;;;;;;29.33;22.23;;;;;;;14.56;64.48;98913.16;4976432;28;20478;-78
2023/04/23 07:51:10;;;;;;;27.98;21.85;;;;;;;14.68;64.69;98900.66;4994311;28;20062;-79
2023/04/23 07:53:36;;;;;;;31.73;23.80;;;;;;;14.82;64.85;98903.91;4994329;28;20137;-79
2023/04/23 07:56:03;;;;;;;28.45;22.63;;;;;;;14.97;65.01;98901.72;4993921;28;20051;-79
2023/04/23 07:58:31;;;;;;;30.98;23.27;;;;;;;15.11;64.16;98898.66;4976270;28;20053;-78
2023/04/23 08:00:58;;;;;;;29.58;22.30;;;;;;;15.26;63.63;98903.56;4976784;28;20085;-79
2023/04/23 08:03:24;;;;;;;26.92;21.10;;;;;;;15.35;62.90;98905.38;4993896;28;20173;-78
2023/04/23 08:05:51;;;;;;;26.75;21.48;;;;;;;15.42;62.18;98902.16;4993850;28;20066;-79
2023/04/23 08:08:18;;;;;;;28.58;21.80;;;;;;;15.47;62.34;98892.78;4993256;28;20073;-79
2023/04/23 08:10:45;;;;;;;29.25;21.85;;;;;;;15.49;61.97;98901.47;4993694;28;20062;-79
2023/04/23 08:13:12;;;;;;;28.50;21.42;;;;;;;15.52;61.83;98891.53;4993706;28;20059;-79
2023/04/23 08:15:38;;;;;;;30.02;22.77;;;;;;;15.52;61.55;98897.69;4993265;28;20422;-80
2023/04/23 08:18:05;;;;;;;28.45;21.10;;;;;;;15.53;61.66;98901.16;4993418;28;20459;-78
2023/04/23 08:20:32;;;;;;;27.75;19.67;;;;;;;15.53;61.68;98893.19;4993921;28;20058;-79
2023/04/23 08:22:58;;;;;;;24.58;18.73;;;;;;;15.54;61.81;98900.19;4993949;28;20054;-81
2023/04/23 08:25:25;;;;;;;21.67;17.13;;;;;;;15.56;61.54;98895.59;4993330;28;20535;-80
2023/04/23 08:27:51;;;;;;;23.80;17.60;;;;;;;15.58;61.62;98888.31;4975986;28;20058;-79
2023/04/23 08:30:18;;;;;;;20.38;17.02;;;;;;;15.59;61.75;98888.16;4993292;28;20578;-80
2023/04/23 08:32:48;;;;;;;19.70;16.40;;;;;;;15.61;61.16;98899.50;4993577;28;20513;-80
2023/04/23 08:35:15;;;;;;;26.02;17.20;;;;;;;15.66;61.75;98884.97;4993155;28;20054;-80
2023/04/23 08:37:41;;;;;;;24.05;17.02;;;;;;;15.69;61.53;98888.16;4991771;28;20507;-79
2023/04/23 08:40:08;;;;;;;19.45;15.90;;;;;;;15.73;61.67;98886.06;4993299;28;20054;-79
2023/04/23 08:42:51;;;;;;;18.95;15.02;;;;;;;15.79;61.85;98895.25;4976005;28;20054;-80
2023/04/23 08:45:18;;;;;;;;;;;;;;;15.85;60.88;98894.72;4992136;28;20254;-80
2023/04/23 08:47:45;;;;;;;16.25;12.27;;;;;;;15.95;60.96;98890.25;4975541;28;20429;-79
2023/04/23 08:50:19;;;;;;;17.55;13.35;;;;;;;15.97;60.79;98882.97;4993099;28;20058;-81
2023/04/23 08:52:49;;;;;;;14.38;11.77;;;;;;;16.02;61.22;98886.03;4993027;28;20047;-80
2023/04/23 08:55:17;;;;;;;17.27;12.93;;;;;;;16.09;61.30;98885.44;4992490;28;20053;-80
2023/04/23 08:57:45;;;;;;;17.30;13.50;;;;;;;16.16;61.60;98883.88;4992805;28;20062;-81
2023/04/23 09:00:14;;;;;;;16.15;12.90;;;;;;;16.26;61.52;98882.03;4992804;28;20054;-80
2023/04/23 09:02:44;;;;;;;15.75;13.10;;;;;;;16.38;61.14;98892.47;4975819;28;20411;-80
2023/04/23 09:05:11;;;;;;;18.35;13.68;;;;;;;16.47;60.38;98888.94;4975237;28;20073;-80
2023/04/23 09:07:38;;;;;;;17.35;13.13;;;;;;;16.56;60.22;98881.06;4992504;28;20054;-80
2023/04/23 09:10:06;;;;;;;17.45;12.45;;;;;;;16.60;59.82;98883.25;4992696;28;20054;-80
2023/04/23 09:12:35;;;;;;;16.27;13.32;;;;;;;16.64;60.18;98881.97;4992861;28;20050;-80
2023/04/23 09:15:09;;;;;;;16.25;13.40;;;;;;;16.68;59.71;98888.66;4992586;28;20066;-80
2023/04/23 09:17:40;;;;;;;13.55;12.05;;;;;;;16.75;59.59;98890.75;4992426;28;20066;-80
2023/04/23 09:20:10;;;;;;;15.32;11.88;;;;;;;16.84;60.08;98889.84;4992783;28;20054;-80
2023/04/23 09:22:40;;;;;;;16.95;11.90;;;;;;;16.92;59.69;98876.66;4992050;28;20058;-80
2023/04/23 09:27:38;;;;;;;15.50;13.18;;;;;;;17.16;59.29;98877.06;4997727;23;20117;-80
2023/04/23 09:30:07;;;;;;;13.65;11.13;;;;;;;17.26;58.75;98876.97;4992390;28;20050;-79
2023/04/23 09:32:34;;;;;;;14.85;11.20;;;;;;;17.32;58.23;98881.69;4975017;28;20055;-78
2023/04/23 09:35:03;;;;;;;14.93;10.43;;;;;;;17.36;57.83;98871.56;4991864;28;20050;-79
2023/04/23 09:37:30;;;;;;;14.27;11.30;;;;;;;17.37;57.55;98867.91;4992174;28;20066;-79
2023/04/23 09:40:08;;;;;;;15.80;11.40;;;;;;;17.33;56.28;98872.72;4992441;28;20054;-79
2023/04/23 09:42:36;;;;;;;13.63;10.95;;;;;;;17.37;57.69;98873.22;4992464;28;20050;-79
2023/04/23 09:45:05;;;;;;;12.23;11.02;;;;;;;17.41;58.01;98858.63;4991786;28;20161;-80
2023/04/23 09:47:39;;;;;;;12.07;9.52;;;;;;;17.46;57.80;98861.69;4991344;28;20584;-79
2023/04/23 09:50:09;;;;;;;13.02;9.23;;;;;;;17.58;58.34;98857.78;4991997;28;20499;-79
2023/04/23 09:52:39;;;;;;;15.05;10.00;;;;;;;17.70;57.02;98858.38;4992002;28;20145;-79
2023/04/23 09:55:07;;;;;;;12.93;9.55;;;;;;;17.88;58.35;98860.16;4991877;28;20058;-79
2023/04/23 09:57:37;;;;;;;11.38;9.45;;;;;;;18.02;58.13;98850.72;4991538;28;20491;-79
2023/04/23 10:00:14;;;;;;;11.63;9.43;;;;;;;18.19;57.48;98858.81;4974527;28;20146;-79
2023/04/23 10:02:49;;;;;;;11.35;9.25;;;;;;;18.36;57.61;98852.56;4991687;28;20093;-80
2023/04/23 10:05:20;;;;;;;10.77;9.57;;;;;;;18.56;58.13;98846.16;4991608;28;20081;-79
2023/04/23 10:07:55;;;;;;;10.60;8.25;;;;;;;18.71;56.53;98849.03;4991601;28;20085;-80
2023/04/23 10:10:22;;;;;;;9.98;8.00;;;;;;;18.84;56.18;98852.03;4991721;28;20573;-79
2023/04/23 10:12:52;;;;;;;9.35;8.00;;;;;;;18.93;56.10;98847.56;4991750;28;20435;-79
2023/04/23 10:15:24;;;;;;;8.20;7.15;;;;;;;19.00;55.24;98847.75;4991269;28;20795;-79
2023/04/23 10:17:52;;;;;;;10.48;7.70;;;;;;;19.04;55.35;98849.09;4991317;28;20047;-80
2023/04/23 10:20:21;;;;;;;10.63;8.02;;;;;;;19.04;54.32;98846.44;4991176;28;20050;-79
2023/04/23 10:22:48;;;;;;;11.02;8.00;;;;;;;19.05;53.85;98849.91;4989697;28;20703;-79
2023/04/23 10:25:18;;;;;;;9.85;7.63;;;;;;;19.04;54.26;98849.09;4989591;28;20047;-79
2023/04/23 10:27:48;;;;;;;8.77;6.55;;;;;;;19.06;53.28;98844.44;4989819;28;20065;-79
2023/04/23 10:30:21;;;;;;;7.63;5.90;;;;;;;19.17;54.29;98847.81;4991555;28;20062;-79
2023/04/23 10:32:49;;;;;;;7.13;6.03;;;;;;;19.25;53.99;98850.47;4989864;28;20503;-80
2023/04/23 10:35:16;;;;;;;6.65;5.40;;;;;;;19.34;52.90;98837.94;4990801;28;20057;-80
2023/04/23 10:37:45;;;;;;;9.60;6.05;;;;;;;19.41;52.77;98844.28;4991074;28;20054;-80
2023/04/23 10:40:13;;;;;;;7.25;6.05;;;;;;;19.49;53.40;98840.78;4991527;28;20082;-79
2023/04/23 10:42:42;;;;;;;6.35;5.50;;;;;;;19.53;52.11;98850.13;4991330;28;20046;-80
2023/04/23 10:45:13;;;;;;;6.45;5.00;;;;;;;19.59;52.48;98841.44;4990881;28;20046;-80
2023/04/23 10:47:49;;;;;;;6.65;5.18;;;;;;;19.73;52.64;98833.75;4990635;28;20506;-79
2023/04/23 10:50:29;;;;;;;6.35;5.00;;;;;;;19.86;53.00;98831.38;4991414;28;20054;-77
2023/04/23 10:52:56;;;;;;;5.82;5.13;;;;;;;20.10;52.67;98832.34;4991096;28;20121;-80
2023/04/23 10:55:26;;;;;;;7.60;5.57;;;;;;;20.24;50.60;98840.63;4990954;28;20054;-80
2023/04/23 10:58:06;;;;;;;10.38;6.30;;;;;;;20.31;49.45;98830.91;4990794;28;20061;-77
2023/04/23 11:00:42;;;;;;;7.72;5.68;;;;;;;20.27;48.68;98835.78;4991119;28;20050;-80
2023/04/23 11:03:30;;;;;;;9.15;6.13;;;;;;;20.23;49.37;98828.28;4991149;28;20061;-79
2023/04/23 11:06:04;;;;;;;7.82;5.43;;;;;;;20.30;50.17;98824.72;4990660;28;20055;-80
2023/04/23 11:08:31;;;;;;;6.93;5.70;;;;;;;20.46;50.88;98825.66;4990266;28;20058;-79
2023/04/23 11:11:00;;;;;;;5.32;4.68;;;;;;;20.59;50.40;98821.59;4990999;28;20057;-79
2023/04/23 11:13:28;;;;;;;7.45;5.10;;;;;;;20.68;50.12;98826.69;4991223;28;20065;-79
2023/04/23 11:16:14;;;;;;;7.40;5.18;;;;;;;20.72;47.78;98821.00;4989484;28;20054;-79
2023/04/23 11:19:05;;;;;;;5.95;4.80;;;;;;;20.89;49.07;98824.44;4990499;28;20149;-79
2023/04/23 11:21:57;;;;;;;7.57;4.20;;;;;;;21.14;44.56;98822.41;4973587;28;20521;-79
2023/04/23 11:24:29;;;;;;;6.13;4.33;;;;;;;21.56;48.37;98820.19;4990831;28;20510;-79
2023/04/23 11:26:57;;;;;;;4.63;3.97;;;;;;;21.99;49.82;98830.31;4990386;28;20101;-77
2023/04/23 11:29:25;;;;;;;5.13;3.38;;;;;;;22.47;49.08;98809.47;4990623;28;20054;-79